createdAt,value
2017-06-18T00:02:04.563Z,20.40
2017-06-18T00:04:30.606Z,20.50
2017-06-18T00:06:56.659Z,20.40
2017-06-18T00:09:22.701Z,20.60
2017-06-18T00:11:48.737Z,20.40
2017-06-18T00:14:15.525Z,20.40
2017-06-18T00:16:41.575Z,20.40
2017-06-18T00:19:07.614Z,20.40
2017-06-18T00:21:33.662Z,20.30
2017-06-18T00:23:59.702Z,20.20
2017-06-18T00:26:25.749Z,20.20
2017-06-18T00:28:51.806Z,20.30
2017-06-18T00:31:17.858Z,20.20
2017-06-18T00:33:43.898Z,20.20
2017-06-18T00:36:09.937Z,20.20
2017-06-18T00:38:35.986Z,20.00
2017-06-18T00:41:02.030Z,20.00
2017-06-18T00:43:28.062Z,20.00
2017-06-18T00:45:54.117Z,19.90
2017-06-18T00:48:20.926Z,20.00
2017-06-18T00:50:46.966Z,20.00
2017-06-18T00:53:13.014Z,20.00
2017-06-18T00:55:39.055Z,20.20
2017-06-18T00:58:05.107Z,20.00
2017-06-18T01:00:31.154Z,19.90
2017-06-18T01:02:57.193Z,19.90
2017-06-18T01:05:23.234Z,19.80
2017-06-18T01:07:49.289Z,19.70
2017-06-18T01:10:15.343Z,19.70
2017-06-18T01:12:41.388Z,19.60
2017-06-18T01:15:07.425Z,19.80
2017-06-18T01:33:49.398Z,19.30
2017-06-18T01:36:15.474Z,19.40
2017-06-18T01:38:42.409Z,19.30
2017-06-18T01:41:08.470Z,19.30
2017-06-18T01:43:34.513Z,19.30
2017-06-18T01:46:00.562Z,19.30
2017-06-18T01:48:26.610Z,19.20
2017-06-18T01:50:52.642Z,19.30
2017-06-18T01:53:18.685Z,19.30
2017-06-18T01:55:44.737Z,19.40
2017-06-18T01:58:10.774Z,19.50
2017-06-18T02:00:36.834Z,19.10
2017-06-18T02:03:02.875Z,19.20
2017-06-18T02:05:28.918Z,19.20
2017-06-18T02:07:54.961Z,19.10
2017-06-18T02:10:21.006Z,19.10
2017-06-18T02:12:47.059Z,19.20
2017-06-18T02:15:13.114Z,19.10
2017-06-18T02:17:39.161Z,19.20
2017-06-18T02:20:05.202Z,19.20
2017-06-18T02:22:31.241Z,19.00
2017-06-18T02:24:57.285Z,19.00
2017-06-18T02:27:23.326Z,19.10
2017-06-18T02:29:49.372Z,19.20
2017-06-18T02:32:15.419Z,19.00
2017-06-18T02:34:41.449Z,18.60
2017-06-18T02:37:07.501Z,18.80
2017-06-18T02:39:33.537Z,18.80
2017-06-18T02:41:59.582Z,18.90
2017-06-18T02:57:26.786Z,18.80
2017-06-18T02:59:52.865Z,19.00
2017-06-18T03:02:18.917Z,18.80
2017-06-18T03:04:44.966Z,18.80
2017-06-18T03:07:11.010Z,18.90
2017-06-18T03:09:37.059Z,18.70
2017-06-18T03:12:03.122Z,18.70
2017-06-18T03:14:29.158Z,18.80
2017-06-18T03:16:55.220Z,18.60
2017-06-18T03:19:21.290Z,18.70
2017-06-18T03:22:00.699Z,18.70
2017-06-18T03:24:26.748Z,18.90
2017-06-18T03:26:53.534Z,18.60
2017-06-18T03:29:19.589Z,18.70
2017-06-18T03:31:45.641Z,18.60
2017-06-18T03:34:11.682Z,18.30
2017-06-18T03:36:37.725Z,18.40
2017-06-18T03:39:03.779Z,18.60
2017-06-18T03:41:29.831Z,18.50
2017-06-18T03:43:55.885Z,18.50
2017-06-18T03:46:21.930Z,18.50
2017-06-18T03:48:47.994Z,18.40
2017-06-18T03:51:14.036Z,18.50
2017-06-18T03:53:40.828Z,18.40
2017-06-18T03:56:06.882Z,18.40
2017-06-18T03:58:32.926Z,18.30
2017-06-18T04:00:58.965Z,18.40
2017-06-18T04:03:25.762Z,18.30
2017-06-18T04:05:51.813Z,18.30
2017-06-18T04:08:17.858Z,18.20
2017-06-18T04:10:43.907Z,18.30
2017-06-18T04:13:09.954Z,18.30
2017-06-18T04:15:36.001Z,18.30
2017-06-18T04:18:02.050Z,18.40
2017-06-18T04:20:28.094Z,18.40
2017-06-18T04:22:54.145Z,18.40
2017-06-18T04:25:20.197Z,18.20
2017-06-18T04:27:46.248Z,18.20
2017-06-18T04:30:12.293Z,18.20
2017-06-18T04:32:38.363Z,18.30
2017-06-18T04:35:04.418Z,18.40
2017-06-18T04:37:30.489Z,18.50
2017-06-18T04:39:56.543Z,18.80
2017-06-18T04:42:22.594Z,18.90
2017-06-18T04:44:48.653Z,18.90
2017-06-18T04:47:14.702Z,18.70
2017-06-18T04:49:40.751Z,18.40
2017-06-18T04:52:06.789Z,18.30
2017-06-18T04:54:32.833Z,18.20
2017-06-18T04:56:58.919Z,18.30
2017-06-18T04:59:24.985Z,18.20
2017-06-18T05:01:51.033Z,18.40
2017-06-18T05:04:17.819Z,18.40
2017-06-18T05:06:43.858Z,18.40
2017-06-18T05:09:09.898Z,18.50
2017-06-18T05:11:35.984Z,18.40
2017-06-18T05:14:02.026Z,18.50
2017-06-18T05:16:28.080Z,18.40
2017-06-18T05:18:54.133Z,18.50
2017-06-18T05:21:20.182Z,18.60
2017-06-18T05:23:46.226Z,18.50
2017-06-18T05:26:12.266Z,18.40
2017-06-18T05:28:38.305Z,18.60
2017-06-18T05:31:04.347Z,19.00
2017-06-18T05:33:30.385Z,19.00
2017-06-18T05:35:56.432Z,19.10
2017-06-18T05:38:22.498Z,18.70
2017-06-18T05:40:48.537Z,19.00
2017-06-18T05:43:14.583Z,19.10
2017-06-18T05:45:40.638Z,19.40
2017-06-18T05:48:06.690Z,19.60
2017-06-18T05:50:32.750Z,19.00
2017-06-18T05:52:58.798Z,19.00
2017-06-18T05:55:24.850Z,19.00
2017-06-18T05:57:50.909Z,18.90
2017-06-18T06:00:16.962Z,18.90
2017-06-18T06:02:43.017Z,19.30
2017-06-18T06:05:09.069Z,19.40
2017-06-18T06:07:35.121Z,19.00
2017-06-18T06:10:01.175Z,19.20
2017-06-18T06:12:27.967Z,19.30
2017-06-18T06:14:54.022Z,19.30
2017-06-18T06:17:20.087Z,19.10
2017-06-18T06:19:46.138Z,19.00
2017-06-18T06:22:12.190Z,19.40
2017-06-18T06:24:38.241Z,19.50
2017-06-18T06:27:05.031Z,19.60
2017-06-18T06:29:31.082Z,19.60
2017-06-18T06:31:57.142Z,19.40
2017-06-18T06:34:23.193Z,19.20
2017-06-18T06:36:49.235Z,19.40
2017-06-18T06:39:15.298Z,19.50
2017-06-18T06:41:41.345Z,19.70
2017-06-18T06:44:07.397Z,19.60
2017-06-18T06:46:33.434Z,19.60
2017-06-18T06:48:59.476Z,19.80
2017-06-18T06:51:25.507Z,19.90
2017-06-18T06:53:51.546Z,19.70
2017-06-18T06:56:17.601Z,19.80
2017-06-18T06:58:43.641Z,19.70
2017-06-18T07:01:09.682Z,19.80
2017-06-18T07:03:35.725Z,19.70
2017-06-18T07:06:01.759Z,19.70
2017-06-18T07:08:27.797Z,19.80
2017-06-18T07:10:53.839Z,19.90
2017-06-18T07:13:20.627Z,20.00
2017-06-18T07:15:46.665Z,19.90
2017-06-18T07:18:12.699Z,20.10
2017-06-18T07:20:38.746Z,20.20
2017-06-18T07:23:04.835Z,20.30
2017-06-18T07:25:30.869Z,20.00
2017-06-18T07:27:56.914Z,19.90
2017-06-18T07:30:22.969Z,19.90
2017-06-18T07:32:49.011Z,19.80
2017-06-18T07:35:15.068Z,20.00
2017-06-18T07:37:41.106Z,20.20
2017-06-18T07:40:07.146Z,20.30
2017-06-18T07:42:33.217Z,20.30
2017-06-18T07:44:59.322Z,20.30
2017-06-18T07:47:25.378Z,20.10
2017-06-18T07:49:51.445Z,20.20
2017-06-18T07:52:17.497Z,20.30
2017-06-18T07:54:43.532Z,20.30
2017-06-18T07:57:10.334Z,20.30
2017-06-18T07:59:36.383Z,20.30
2017-06-18T08:02:02.431Z,20.40
2017-06-18T08:04:28.477Z,20.20
2017-06-18T08:06:54.538Z,20.10
2017-06-18T08:09:20.574Z,20.10
2017-06-18T08:11:46.618Z,20.10
2017-06-18T08:14:12.661Z,20.20
2017-06-18T08:16:38.697Z,20.30
2017-06-18T08:19:04.733Z,20.30
2017-06-18T08:21:30.777Z,20.60
2017-06-18T08:23:56.821Z,20.80
2017-06-18T08:26:22.853Z,20.60
2017-06-18T08:28:48.911Z,20.50
2017-06-18T08:31:15.698Z,20.50
2017-06-18T08:33:41.737Z,20.40
2017-06-18T08:36:07.774Z,20.50
2017-06-18T08:38:33.837Z,20.60
2017-06-18T08:40:59.878Z,20.70
2017-06-18T08:43:25.926Z,20.60
2017-06-18T08:45:51.969Z,20.50
2017-06-18T08:48:18.005Z,20.60
2017-06-18T09:03:20.274Z,20.60
2017-06-18T09:05:46.323Z,20.60
2017-06-18T09:08:12.414Z,20.60
2017-06-18T09:10:38.470Z,20.80
2017-06-18T09:13:05.282Z,20.80
2017-06-18T09:15:31.328Z,20.80
2017-06-18T09:17:57.382Z,20.70
2017-06-18T09:20:23.439Z,20.80
2017-06-18T09:22:49.486Z,20.80
2017-06-18T09:25:15.562Z,20.80
2017-06-18T09:27:41.617Z,20.80
2017-06-18T09:30:07.671Z,20.80
2017-06-18T09:32:33.726Z,20.90
2017-06-18T09:34:59.806Z,21.00
2017-06-18T09:37:25.875Z,21.00
2017-06-18T09:39:51.930Z,21.00
2017-06-18T09:42:17.989Z,20.90
2017-06-18T09:44:44.045Z,20.90
2017-06-18T09:47:10.097Z,21.00
2017-06-18T09:49:36.158Z,21.20
2017-06-18T09:52:02.220Z,21.20
2017-06-18T09:54:29.019Z,21.20
2017-06-18T09:56:55.084Z,21.10
2017-06-18T09:59:21.133Z,21.30
2017-06-18T10:01:47.190Z,21.20
2017-06-18T10:04:13.255Z,21.10
2017-06-18T10:06:39.311Z,21.10
2017-06-18T10:09:05.382Z,21.10
2017-06-18T10:11:31.454Z,21.20
2017-06-18T10:13:58.259Z,21.20
2017-06-18T10:16:24.314Z,21.20
2017-06-18T10:18:50.365Z,21.20
2017-06-18T10:21:34.198Z,21.20
2017-06-18T10:24:00.257Z,21.30
2017-06-18T10:26:26.301Z,21.30
2017-06-18T10:28:52.358Z,21.40
2017-06-18T10:31:18.431Z,21.40
2017-06-18T10:33:44.584Z,21.40
2017-06-18T10:36:10.638Z,21.40
2017-06-18T10:38:37.433Z,21.50
2017-06-18T10:41:03.706Z,21.50
2017-06-18T10:43:29.785Z,21.50
2017-06-18T10:45:55.844Z,21.40
2017-06-18T10:48:21.911Z,21.40
2017-06-18T10:50:47.965Z,21.40
2017-06-18T10:53:14.019Z,21.50
2017-06-18T10:55:40.085Z,21.50
2017-06-18T10:58:06.147Z,21.50
2017-06-18T11:00:32.199Z,21.50
2017-06-18T11:02:58.262Z,21.50
2017-06-18T11:05:24.313Z,21.50
2017-06-18T11:07:50.363Z,21.40
2017-06-18T11:10:16.405Z,21.50
2017-06-18T11:12:42.449Z,21.60
2017-06-18T11:15:08.514Z,21.60
2017-06-18T11:17:34.566Z,21.60
2017-06-18T11:20:00.618Z,21.60
2017-06-18T11:22:41.634Z,21.60
2017-06-18T11:25:07.679Z,21.70
2017-06-18T11:27:33.734Z,21.70
2017-06-18T11:29:59.830Z,21.70
2017-06-18T11:32:25.902Z,21.70
2017-06-18T11:34:51.957Z,21.70
2017-06-18T11:37:18.010Z,21.80
2017-06-18T11:39:44.054Z,21.80
2017-06-18T11:42:10.113Z,21.70
2017-06-18T11:44:36.182Z,21.80
2017-06-18T11:47:02.242Z,21.90
2017-06-18T11:49:28.305Z,21.90
2017-06-18T11:51:54.365Z,21.80
2017-06-18T11:54:20.438Z,21.90
2017-06-18T11:56:47.253Z,21.90
2017-06-18T11:59:28.285Z,21.90
2017-06-18T12:01:54.354Z,21.90
2017-06-18T12:04:20.414Z,21.90
2017-06-18T12:06:47.226Z,22.00
2017-06-18T12:09:13.282Z,22.00
2017-06-18T12:11:39.346Z,22.10
2017-06-18T12:14:05.410Z,22.10
2017-06-18T12:16:31.469Z,22.00
2017-06-18T12:18:57.534Z,22.00
2017-06-18T12:21:23.622Z,22.10
2017-06-18T12:23:49.700Z,22.00
2017-06-18T12:26:15.747Z,22.10
2017-06-18T12:28:41.810Z,22.10
2017-06-18T12:31:07.873Z,22.10
2017-06-18T12:33:33.934Z,22.10
2017-06-18T12:35:59.990Z,22.10
2017-06-18T12:38:26.067Z,22.10
2017-06-18T12:40:52.122Z,22.10
2017-06-18T12:43:18.177Z,22.10
2017-06-18T12:45:44.217Z,22.10
2017-06-18T12:48:10.263Z,22.20
2017-06-18T12:50:36.318Z,22.20
2017-06-18T12:53:02.375Z,22.20
2017-06-18T12:55:28.429Z,22.20
2017-06-18T12:57:54.470Z,22.20
2017-06-18T13:00:20.518Z,22.30
2017-06-18T13:02:46.566Z,22.30
2017-06-18T13:05:12.627Z,22.30
2017-06-18T13:07:38.695Z,22.30
2017-06-18T13:10:04.743Z,22.30
2017-06-18T13:12:30.805Z,22.30
2017-06-18T13:14:56.849Z,22.40
2017-06-18T13:17:22.898Z,22.40
2017-06-18T13:19:48.950Z,22.40
2017-06-18T13:22:15.746Z,22.40
2017-06-18T13:24:41.806Z,22.40
2017-06-18T13:27:07.853Z,22.40
2017-06-18T13:29:33.901Z,22.40
2017-06-18T13:31:59.967Z,22.50
2017-06-18T13:34:26.010Z,22.50
2017-06-18T13:36:52.798Z,22.60
2017-06-18T13:39:18.840Z,22.60
2017-06-18T13:41:44.891Z,22.60
2017-06-18T13:44:10.939Z,22.60
2017-06-18T13:46:37.745Z,22.70
2017-06-18T13:49:03.786Z,22.70
2017-06-18T13:51:29.846Z,22.80
2017-06-18T13:53:55.902Z,22.90
2017-06-18T13:56:21.942Z,22.90
2017-06-18T13:58:48.130Z,23.00
2017-06-18T14:01:14.167Z,23.00
2017-06-18T14:03:40.215Z,23.00
2017-06-18T14:06:06.290Z,23.10
2017-06-18T14:08:32.354Z,23.10
2017-06-18T14:10:58.398Z,23.20
2017-06-18T14:13:24.647Z,23.30
2017-06-18T14:15:50.741Z,23.30
2017-06-18T14:18:16.782Z,23.40
2017-06-18T14:20:42.822Z,23.40
2017-06-18T14:23:08.874Z,23.40
2017-06-18T14:25:34.922Z,23.50
2017-06-18T14:28:00.973Z,23.60
2017-06-18T14:30:27.019Z,23.60
2017-06-18T14:32:53.058Z,23.70
2017-06-18T14:35:19.114Z,23.80
2017-06-18T14:37:45.169Z,23.80
2017-06-18T14:40:11.216Z,23.90
2017-06-18T14:42:37.274Z,23.90
2017-06-18T14:45:03.328Z,24.00
2017-06-18T14:47:29.389Z,24.00
2017-06-18T14:49:55.434Z,24.10
2017-06-18T14:52:21.494Z,24.20
2017-06-18T14:54:47.545Z,24.10
2017-06-18T14:57:13.598Z,24.20
2017-06-18T14:59:39.645Z,24.20
2017-06-18T15:02:05.693Z,24.30
2017-06-18T15:04:32.482Z,24.40
2017-06-18T15:06:58.530Z,24.40
2017-06-18T15:09:24.582Z,24.50
2017-06-18T15:11:50.642Z,24.50
2017-06-18T15:14:16.690Z,24.40
2017-06-18T15:16:42.746Z,24.30
2017-06-18T15:19:08.805Z,24.40
2017-06-18T15:21:34.885Z,24.40
2017-06-18T15:24:00.937Z,24.50
2017-06-18T15:26:26.997Z,24.50
2017-06-18T15:28:53.056Z,24.40
2017-06-18T15:31:19.106Z,24.30
2017-06-18T15:33:45.157Z,24.40
2017-06-18T15:36:11.941Z,24.40
2017-06-18T15:38:38.005Z,24.40
2017-06-18T15:41:04.064Z,24.40
2017-06-18T15:43:30.218Z,24.30
2017-06-18T15:45:56.278Z,24.20
2017-06-18T15:48:22.349Z,24.10
2017-06-18T15:50:48.401Z,24.00
2017-06-18T15:53:14.453Z,23.90
2017-06-18T15:55:40.519Z,23.90
2017-06-18T15:58:06.574Z,23.90
2017-06-18T16:00:32.625Z,23.90
2017-06-18T16:02:58.677Z,23.90
2017-06-18T16:05:25.499Z,23.90
2017-06-18T16:07:51.575Z,23.90
2017-06-18T16:10:17.763Z,23.90
2017-06-18T16:12:43.813Z,23.90
2017-06-18T16:15:09.882Z,23.80
2017-06-18T16:17:36.959Z,23.90
2017-06-18T16:20:03.020Z,23.80
2017-06-18T16:22:29.073Z,23.80
2017-06-18T16:24:55.146Z,23.80
2017-06-18T16:27:21.243Z,23.80
2017-06-18T16:29:47.304Z,23.80
2017-06-18T16:32:13.361Z,23.80
2017-06-18T16:34:39.418Z,23.80
2017-06-18T16:37:05.465Z,23.80
2017-06-18T16:39:31.516Z,23.80
2017-06-18T16:41:58.311Z,23.80
2017-06-18T16:44:24.358Z,23.80
2017-06-18T16:46:50.417Z,23.80
2017-06-18T16:49:16.474Z,23.80
2017-06-18T16:51:42.518Z,23.80
2017-06-18T16:54:08.570Z,23.80
2017-06-18T16:56:34.621Z,23.70
2017-06-18T16:59:00.674Z,23.70
2017-06-18T17:01:26.741Z,23.70
2017-06-18T17:03:52.794Z,23.70
2017-06-18T17:06:18.856Z,23.70
2017-06-18T17:08:44.909Z,23.70
2017-06-18T17:11:10.970Z,23.70
2017-06-18T17:13:37.764Z,23.70
2017-06-18T17:16:03.848Z,23.70
2017-06-18T17:18:29.916Z,23.70
2017-06-18T17:21:02.046Z,23.70
2017-06-18T17:23:28.093Z,23.60
2017-06-18T17:25:54.162Z,23.60
2017-06-18T17:28:20.234Z,23.60
2017-06-18T17:30:46.290Z,23.60
2017-06-18T17:33:12.362Z,23.60
2017-06-18T17:35:38.408Z,23.60
2017-06-18T17:38:04.458Z,23.60
2017-06-18T17:40:30.498Z,23.60
2017-06-18T17:42:56.550Z,23.60
2017-06-18T17:45:23.363Z,23.60
2017-06-18T17:47:49.414Z,23.60
2017-06-18T17:50:15.465Z,23.60
2017-06-18T17:52:41.522Z,23.60
2017-06-18T17:55:07.582Z,23.60
2017-06-18T17:57:33.630Z,23.60
2017-06-18T18:00:00.423Z,23.50
2017-06-18T18:02:26.497Z,23.50
2017-06-18T18:04:52.565Z,23.50
2017-06-18T18:07:18.614Z,23.50
2017-06-18T18:09:44.658Z,23.50
2017-06-18T18:12:10.705Z,23.50
2017-06-18T18:14:37.510Z,23.50
2017-06-18T18:17:03.554Z,23.50
2017-06-18T18:19:29.633Z,23.50
2017-06-18T18:21:55.686Z,23.50
2017-06-18T18:24:21.737Z,23.50
2017-06-18T18:26:47.785Z,23.40
2017-06-18T18:29:14.587Z,23.50
2017-06-18T18:31:40.630Z,23.50
2017-06-18T18:34:06.687Z,23.40
2017-06-18T18:36:32.774Z,23.40
2017-06-18T18:38:58.839Z,23.40
2017-06-18T18:41:24.910Z,23.40
2017-06-18T18:43:50.975Z,23.40
2017-06-18T18:46:17.046Z,23.40
2017-06-18T18:48:43.101Z,23.40
2017-06-18T18:51:16.013Z,23.40
2017-06-18T18:53:42.061Z,23.40
2017-06-18T18:56:08.126Z,23.40
2017-06-18T18:58:34.181Z,23.40
2017-06-18T19:01:00.251Z,23.40
2017-06-18T19:03:26.306Z,23.40
2017-06-18T19:05:52.437Z,23.30
2017-06-18T19:08:18.506Z,23.40
2017-06-18T19:10:44.558Z,23.30
2017-06-18T19:13:10.608Z,23.30
2017-06-18T19:15:36.666Z,23.30
2017-06-18T19:18:02.718Z,23.30
2017-06-18T19:20:28.797Z,23.30
2017-06-18T19:22:54.858Z,23.30
2017-06-18T19:25:20.926Z,23.30
2017-06-18T19:27:46.970Z,23.30
2017-06-18T19:30:44.431Z,23.30
2017-06-18T19:33:10.481Z,23.30
2017-06-18T19:35:36.522Z,23.30
2017-06-18T19:38:02.586Z,23.30
2017-06-18T19:40:28.648Z,23.30
2017-06-18T19:42:54.706Z,23.30
2017-06-18T19:45:21.509Z,23.20
2017-06-18T19:47:47.558Z,23.20
2017-06-18T19:50:13.630Z,23.30
2017-06-18T19:52:39.698Z,23.20
2017-06-18T19:55:05.757Z,23.20
2017-06-18T19:57:31.809Z,23.20
2017-06-18T20:00:12.814Z,23.20
2017-06-18T20:02:38.865Z,23.20
2017-06-18T20:05:04.909Z,23.20
2017-06-18T20:07:30.967Z,23.20
2017-06-18T20:09:57.035Z,23.20
2017-06-18T20:12:23.085Z,23.20
2017-06-18T20:15:04.100Z,23.20
2017-06-18T20:17:30.158Z,23.20
2017-06-18T20:19:56.229Z,23.20
2017-06-18T20:22:22.274Z,23.20
2017-06-18T20:24:48.322Z,23.20
2017-06-18T20:27:14.370Z,23.20
2017-06-18T20:29:40.434Z,23.10
2017-06-18T20:32:06.487Z,23.10
2017-06-18T20:34:32.549Z,23.10
2017-06-18T20:36:58.612Z,23.10
2017-06-18T20:39:24.679Z,23.10
2017-06-18T20:41:50.743Z,23.10
2017-06-18T20:44:16.805Z,23.10
2017-06-18T20:46:42.862Z,23.10
2017-06-18T20:49:08.918Z,23.00
2017-06-18T20:51:34.986Z,23.00
2017-06-18T20:54:01.042Z,23.00
2017-06-18T20:56:27.097Z,23.00
2017-06-18T20:58:53.894Z,23.00
2017-06-18T21:01:34.911Z,22.90
2017-06-18T21:04:01.719Z,23.00
2017-06-18T21:06:27.787Z,22.90
2017-06-18T21:08:53.845Z,23.00
2017-06-18T21:11:19.901Z,22.90
2017-06-18T21:13:45.969Z,23.00
2017-06-18T21:16:12.074Z,23.00
2017-06-18T21:18:38.138Z,22.90
2017-06-18T21:21:04.213Z,22.90
2017-06-18T21:23:30.273Z,22.90
2017-06-18T21:25:56.346Z,22.90
2017-06-18T21:28:22.402Z,22.90
2017-06-18T21:30:48.478Z,22.90
2017-06-18T21:33:14.536Z,22.80
2017-06-18T21:35:40.583Z,22.80
2017-06-18T21:38:06.646Z,22.80
2017-06-18T21:40:32.702Z,22.80
2017-06-18T21:42:58.765Z,22.70
2017-06-18T21:45:24.817Z,22.80
2017-06-18T21:47:50.891Z,22.80
2017-06-18T21:50:16.942Z,22.70
2017-06-18T21:52:42.994Z,22.70
2017-06-18T21:55:09.789Z,22.80
2017-06-18T21:57:35.847Z,22.80
2017-06-18T22:00:01.908Z,22.80
2017-06-18T22:02:27.986Z,22.90
2017-06-18T22:04:54.050Z,22.80
2017-06-18T22:07:20.105Z,22.80
2017-06-18T22:09:46.170Z,22.70
2017-06-18T22:12:12.234Z,22.70
2017-06-18T22:14:38.297Z,22.70
2017-06-18T22:17:04.351Z,22.70
2017-06-18T22:19:30.409Z,22.80
2017-06-18T22:21:56.465Z,22.80
2017-06-18T22:24:22.524Z,22.70
2017-06-18T22:26:48.566Z,22.50
2017-06-18T22:29:14.614Z,22.60
2017-06-18T22:31:40.666Z,22.60
2017-06-18T22:34:06.717Z,22.70
2017-06-18T22:36:32.770Z,22.60
2017-06-18T22:39:13.811Z,22.50
2017-06-18T22:41:39.866Z,22.60
2017-06-18T22:44:05.918Z,22.50
2017-06-18T22:46:31.966Z,22.50
2017-06-18T22:48:58.015Z,22.60
2017-06-18T22:51:24.053Z,22.50
2017-06-18T22:53:50.102Z,22.40
2017-06-18T22:56:16.894Z,22.50
2017-06-18T22:58:42.939Z,22.50
2017-06-18T23:01:23.945Z,22.30
2017-06-18T23:03:49.994Z,22.20
2017-06-18T23:06:16.037Z,22.10
2017-06-18T23:08:42.073Z,22.30
2017-06-18T23:11:08.114Z,22.30
2017-06-18T23:13:34.158Z,22.30
2017-06-18T23:16:00.198Z,22.20
2017-06-18T23:18:26.245Z,22.20
2017-06-18T23:20:52.286Z,22.40
2017-06-18T23:23:18.330Z,22.30
2017-06-18T23:25:44.373Z,22.20
2017-06-18T23:28:10.434Z,22.20
2017-06-18T23:30:36.478Z,22.20
2017-06-18T23:33:02.514Z,22.10
2017-06-18T23:35:28.566Z,21.90
2017-06-18T23:37:54.618Z,21.90
2017-06-18T23:40:20.662Z,21.90
2017-06-18T23:42:46.729Z,21.90
2017-06-18T23:45:12.781Z,21.90
2017-06-18T23:47:38.839Z,21.90
2017-06-18T23:50:05.641Z,21.70
2017-06-18T23:52:31.691Z,21.70
2017-06-18T23:54:57.730Z,21.60
2017-06-18T23:57:23.810Z,21.70
2017-06-18T23:59:49.854Z,21.80
